Time;durP1;ratioP1;P1;durP2;ratioP2;P2;SDS_P1;SDS_P2;PMS_P1;PMS_P2;Temp;Humidity;BMP_temperature;BMP_pressure;BME280_temperature;BME280_humidity;BME280_pressure;Samples;Min_cycle;Max_cycle;Signal;HPM_P1;HPM_P2
2023/06/14 00:00:44;;;;;;;6.77;3.40;;;18.80;84.20;;;;;;5093577;28;20595;-70
2023/06/14 00:03:11;;;;;;;4.50;3.00;;;18.80;84.30;;;;;;5079865;28;20204;-75
2023/06/14 00:05:42;;;;;;;6.23;3.37;;;18.70;84.20;;;;;;5091438;28;20204;-76
2023/06/14 00:08:10;;;;;;;7.30;3.70;;;18.70;84.30;;;;;;5077361;28;20280;-78
2023/06/14 00:10:38;;;;;;;6.47;3.90;;;18.70;84.40;;;;;;5097627;28;20206;-75
2023/06/14 00:13:07;;;;;;;7.40;3.57;;;18.70;84.80;;;;;;5093173;28;20204;-76
2023/06/14 00:15:34;;;;;;;7.00;3.37;;;18.60;84.70;;;;;;5098618;28;20520;-75
2023/06/14 00:18:02;;;;;;;4.70;3.20;;;18.60;85.00;;;;;;5097116;28;20213;-75
2023/06/14 00:20:30;;;;;;;5.47;3.33;;;18.60;84.90;;;;;;5094195;28;20238;-75
2023/06/14 00:22:58;;;;;;;5.20;3.13;;;18.50;84.80;;;;;;5101255;28;20706;-75
2023/06/14 00:25:25;;;;;;;7.90;3.57;;;18.50;84.90;;;;;;5098371;28;20240;-78
2023/06/14 00:27:56;;;;;;;5.13;3.30;;;18.50;84.90;;;;;;5100802;28;20231;-76
2023/06/14 00:30:24;;;;;;;6.03;3.60;;;18.40;85.10;;;;;;5096591;28;20269;-65
2023/06/14 00:32:51;;;;;;;6.43;3.47;;;18.40;85.40;;;;;;5100795;28;20203;-75
2023/06/14 00:35:18;;;;;;;8.20;3.80;;;18.40;85.40;;;;;;5097946;28;20200;-76
2023/06/14 00:37:45;;;;;;;4.53;3.10;;;18.30;85.50;;;;;;5097736;28;20234;-75
2023/06/14 00:40:12;;;;;;;7.40;3.17;;;18.30;85.40;;;;;;5096411;28;20568;-75
2023/06/14 00:42:40;;;;;;;5.87;3.07;;;18.30;85.50;;;;;;5099826;28;20323;-75
2023/06/14 00:45:08;;;;;;;5.30;3.10;;;18.20;85.50;;;;;;5097372;28;20245;-76
2023/06/14 00:47:37;;;;;;;4.90;2.93;;;18.20;85.60;;;;;;5096522;28;20211;-75
2023/06/14 00:50:07;;;;;;;4.70;3.30;;;18.20;85.70;;;;;;5084112;28;20234;-77
2023/06/14 00:52:34;;;;;;;6.23;3.27;;;18.10;85.90;;;;;;5098060;28;20208;-77
2023/06/14 00:55:01;;;;;;;9.63;4.60;;;18.10;86.20;;;;;;5102021;28;20203;-75
2023/06/14 00:57:29;;;;;;;6.70;3.90;;;18.00;86.50;;;;;;5084049;28;20223;-75
2023/06/14 00:59:56;;;;;;;4.30;3.10;;;18.00;87.20;;;;;;5083512;28;20206;-76
2023/06/14 01:02:26;;;;;;;6.50;3.40;;;17.90;87.70;;;;;;5099176;28;20219;-76
2023/06/14 01:04:54;;;;;;;5.03;3.10;;;17.90;88.00;;;;;;5096941;28;20621;-78
2023/06/14 01:07:21;;;;;;;6.50;3.50;;;17.70;88.20;;;;;;5100504;28;20207;-76
2023/06/14 01:09:54;;;;;;;9.23;3.37;;;17.70;88.60;;;;;;5078032;28;20256;-78
2023/06/14 01:12:29;;;;;;;5.30;3.30;;;17.60;89.10;;;;;;5095924;28;20212;-77
2023/06/14 01:14:57;;;;;;;4.93;3.10;;;17.60;89.30;;;;;;5100764;28;20199;-77
2023/06/14 01:17:26;;;;;;;7.80;3.53;;;17.60;89.20;;;;;;5098354;28;20247;-77
2023/06/14 01:19:57;;;;;;;5.60;3.37;;;17.50;89.40;;;;;;5095395;28;20245;-78
2023/06/14 01:22:26;;;;;;;6.37;3.97;;;17.50;89.50;;;;;;5082842;28;20215;-76
2023/06/14 01:24:55;;;;;;;5.00;3.37;;;17.50;90.00;;;;;;5098421;28;20219;-77
2023/06/14 01:27:24;;;;;;;5.00;3.17;;;17.40;90.00;;;;;;5100467;28;20204;-78
2023/06/14 01:29:56;;;;;;;6.87;3.33;;;17.40;90.00;;;;;;5098333;28;20713;-78
2023/06/14 01:32:25;;;;;;;5.53;3.43;;;17.30;90.00;;;;;;5096064;28;20645;-77
2023/06/14 01:34:52;;;;;;;5.27;3.10;;;17.30;90.10;;;;;;5100356;28;20308;-75
2023/06/14 01:37:21;;;;;;;5.47;3.17;;;17.30;90.20;;;;;;5100930;28;20222;-78
2023/06/14 01:39:50;;;;;;;9.30;3.57;;;17.30;90.40;;;;;;5097357;28;20275;-75
2023/06/14 01:42:17;;;;;;;6.10;3.40;;;17.20;90.60;;;;;;5097803;28;20287;-75
2023/06/14 01:44:45;;;;;;;4.97;3.10;;;17.10;90.70;;;;;;5095100;28;20215;-75
2023/06/14 01:47:13;;;;;;;7.50;3.90;;;17.10;91.00;;;;;;5094438;28;20211;-78
2023/06/14 01:49:40;;;;;;;10.00;4.07;;;17.00;91.60;;;;;;5079955;28;20223;-77
2023/06/14 01:52:09;;;;;;;6.97;3.40;;;16.90;91.80;;;;;;5095058;28;20207;-78
2023/06/14 01:54:41;;;;;;;7.17;3.47;;;16.90;92.20;;;;;;5094815;28;20287;-75
2023/06/14 01:57:10;;;;;;;7.37;3.73;;;16.80;92.50;;;;;;5095723;28;20200;-76
2023/06/14 01:59:37;;;;;;;5.20;3.23;;;16.80;92.90;;;;;;5081265;28;20250;-76
2023/06/14 02:02:04;;;;;;;7.30;3.17;;;16.70;92.90;;;;;;5083335;28;20203;-78
2023/06/14 02:04:31;;;;;;;6.63;3.40;;;16.70;93.30;;;;;;5099977;28;20573;-76
2023/06/14 02:06:58;;;;;;;5.57;3.57;;;16.60;93.60;;;;;;5098182;28;20211;-76
2023/06/14 02:09:25;;;;;;;4.47;3.50;;;16.60;93.70;;;;;;5099016;28;20237;-77
2023/06/14 02:11:52;;;;;;;4.70;3.20;;;16.50;93.90;;;;;;5096835;28;20237;-77
2023/06/14 02:14:20;;;;;;;7.27;3.27;;;16.50;94.00;;;;;;5092318;28;20673;-76
2023/06/14 02:16:48;;;;;;;7.10;3.30;;;16.50;94.20;;;;;;5095944;28;20216;-75
2023/06/14 02:19:16;;;;;;;5.10;3.40;;;16.50;94.30;;;;;;5080095;28;20235;-77
2023/06/14 02:21:44;;;;;;;7.87;3.60;;;16.40;94.40;;;;;;5075907;28;20309;-79
2023/06/14 02:24:12;;;;;;;5.97;3.10;;;16.40;94.50;;;;;;5074245;28;20219;-77
2023/06/14 02:26:41;;;;;;;7.27;3.47;;;16.40;94.60;;;;;;5074234;28;20253;-76
2023/06/14 02:29:12;;;;;;;6.00;3.73;;;16.40;94.80;;;;;;5074122;28;20749;-76
2023/06/14 02:31:40;;;;;;;5.97;3.60;;;16.40;95.20;;;;;;5074509;28;20200;-77
2023/06/14 02:34:10;;;;;;;7.77;3.50;;;16.40;95.30;;;;;;5079537;28;20715;-76
2023/06/14 02:36:41;;;;;;;9.93;3.87;;;16.30;95.40;;;;;;5076991;28;20485;-76
2023/06/14 02:39:09;;;;;;;7.97;4.73;;;16.30;95.70;;;;;;5074381;28;20674;-77
2023/06/14 02:41:36;;;;;;;5.50;3.63;;;16.30;96.00;;;;;;5083506;28;20515;-77
2023/06/14 02:44:03;;;;;;;5.07;3.37;;;16.30;96.20;;;;;;5072344;28;21043;-78
2023/06/14 02:46:30;;;;;;;5.87;3.70;;;16.20;96.40;;;;;;5078354;28;20209;-78
2023/06/14 02:48:57;;;;;;;7.30;3.27;;;16.20;96.60;;;;;;5073834;28;20236;-76
2023/06/14 02:51:24;;;;;;;5.27;2.97;;;16.20;96.70;;;;;;5077684;28;20207;-76
2023/06/14 02:53:51;;;;;;;6.03;3.60;;;16.10;96.90;;;;;;5074929;28;20266;-77
2023/06/14 02:56:19;;;;;;;5.67;3.47;;;16.10;97.00;;;;;;5069132;28;20284;-76
2023/06/14 02:58:46;;;;;;;4.63;3.37;;;16.10;97.30;;;;;;5073022;28;20295;-77
2023/06/14 03:01:13;;;;;;;6.67;3.80;;;16.00;97.50;;;;;;5077822;28;20208;-78
2023/06/14 03:03:40;;;;;;;5.83;3.53;;;16.00;97.60;;;;;;5078701;28;20205;-76
2023/06/14 03:06:08;;;;;;;9.20;3.93;;;16.00;97.80;;;;;;5076473;28;20212;-77
2023/06/14 03:08:38;;;;;;;7.30;4.07;;;16.00;98.20;;;;;;5077872;28;20259;-77
2023/06/14 03:11:05;;;;;;;7.60;4.00;;;16.00;98.40;;;;;;5074258;28;20200;-76
2023/06/14 03:13:33;;;;;;;6.23;3.60;;;15.90;98.70;;;;;;5080596;28;20643;-77
2023/06/14 03:16:02;;;;;;;6.87;3.90;;;15.90;99.40;;;;;;5074003;28;20216;-78
2023/06/14 03:18:35;;;;;;;6.47;4.03;;;15.90;99.50;;;;;;5078654;28;20528;-77
2023/06/14 03:21:02;;;;;;;6.07;3.73;;;15.80;99.90;;;;;;5095978;28;20212;-77
2023/06/14 03:23:30;;;;;;;6.57;4.00;;;15.80;99.90;;;;;;5096086;28;20231;-78
2023/06/14 03:25:57;;;;;;;7.83;4.07;;;15.70;99.90;;;;;;5094461;28;20214;-75
2023/06/14 03:28:24;;;;;;;6.60;3.67;;;15.70;99.90;;;;;;5096806;28;20227;-78
2023/06/14 03:30:51;;;;;;;6.70;3.60;;;15.60;99.90;;;;;;5093979;28;20234;-76
2023/06/14 03:33:19;;;;;;;7.40;3.97;;;15.60;99.90;;;;;;5097411;28;20204;-77
2023/06/14 03:35:46;;;;;;;6.47;3.97;;;15.60;99.90;;;;;;5081160;28;20590;-76
2023/06/14 03:38:13;;;;;;;10.10;3.70;;;15.60;99.90;;;;;;5093315;28;20256;-77
2023/06/14 03:40:39;;;;;;;7.77;4.33;;;15.60;99.90;;;;;;5094537;28;20200;-80
2023/06/14 03:43:06;;;;;;;5.43;4.10;;;15.60;99.90;;;;;;5096231;28;20215;-80
2023/06/14 03:45:33;;;;;;;6.97;3.63;;;15.60;99.90;;;;;;5095949;28;20282;-78
2023/06/14 03:48:00;;;;;;;9.43;4.20;;;15.60;99.90;;;;;;5095309;28;20216;-76
2023/06/14 03:50:28;;;;;;;6.20;3.83;;;15.60;99.90;;;;;;5095008;28;20266;-79
2023/06/14 03:52:55;;;;;;;4.80;3.20;;;15.60;99.90;;;;;;5099092;28;20212;-77
2023/06/14 03:55:25;;;;;;;5.70;3.37;;;15.60;99.90;;;;;;5082152;28;20206;-78
2023/06/14 03:57:54;;;;;;;6.67;4.00;;;15.60;99.90;;;;;;5097866;28;20710;-77
2023/06/14 04:00:22;;;;;;;5.20;3.60;;;15.60;99.90;;;;;;5104814;28;20295;-76
2023/06/14 04:02:49;;;;;;;5.60;3.73;;;15.60;99.90;;;;;;5098628;28;20212;-76
2023/06/14 04:05:16;;;;;;;8.43;4.00;;;15.60;99.90;;;;;;5101474;28;20214;-77
2023/06/14 04:07:44;;;;;;;6.37;3.50;;;15.70;99.90;;;;;;5096783;28;20295;-76
2023/06/14 04:10:13;;;;;;;7.33;3.93;;;15.70;99.90;;;;;;5098934;28;20274;-76
2023/06/14 04:12:40;;;;;;;8.57;4.40;;;15.70;99.90;;;;;;5082029;28;20191;-77
2023/06/14 04:15:10;;;;;;;9.63;4.73;;;15.70;99.90;;;;;;5083041;28;20204;-76
2023/06/14 04:17:47;;;;;;;8.93;4.23;;;15.70;99.90;;;;;;5101395;28;20210;-76
2023/06/14 04:20:14;;;;;;;6.93;3.67;;;15.70;99.90;;;;;;5100899;28;20238;-77
2023/06/14 04:22:43;;;;;;;9.03;4.07;;;15.70;99.90;;;;;;5098364;28;20597;-77
2023/06/14 04:25:11;;;;;;;5.03;3.50;;;15.80;99.90;;;;;;5081534;28;20708;-76
2023/06/14 04:27:38;;;;;;;5.83;3.60;;;15.80;99.90;;;;;;5098149;28;20243;-76
2023/06/14 04:30:07;;;;;;;4.60;3.50;;;15.80;99.90;;;;;;5100019;28;20731;-76
2023/06/14 04:32:38;;;;;;;6.93;3.77;;;15.90;99.90;;;;;;5096604;28;20210;-76
2023/06/14 04:35:08;;;;;;;7.27;3.67;;;15.90;99.90;;;;;;5099682;28;20215;-79
2023/06/14 04:37:39;;;;;;;7.33;3.80;;;15.90;99.90;;;;;;5094896;28;20238;-80
2023/06/14 04:40:07;;;;;;;4.53;3.60;;;15.90;99.90;;;;;;5096095;28;20246;-75
2023/06/14 04:42:38;;;;;;;5.50;3.47;;;16.00;99.90;;;;;;5096664;28;20678;-76
2023/06/14 04:45:06;;;;;;;7.13;3.50;;;16.00;99.90;;;;;;5080875;28;20197;-75
2023/06/14 04:47:34;;;;;;;6.23;3.07;;;16.10;99.90;;;;;;5095412;27;20222;-75
2023/06/14 04:50:03;;;;;;;5.97;3.50;;;16.10;99.90;;;;;;5097022;28;20223;-75
2023/06/14 04:52:30;;;;;;;4.57;3.43;;;16.20;99.90;;;;;;5099323;28;20523;-75
2023/06/14 04:54:57;;;;;;;5.67;3.73;;;16.20;99.90;;;;;;5098246;28;20669;-76
2023/06/14 04:57:25;;;;;;;9.77;3.80;;;16.20;99.90;;;;;;5093961;28;20202;-76
2023/06/14 04:59:54;;;;;;;7.17;3.50;;;16.30;99.90;;;;;;5092824;28;20208;-76
2023/06/14 05:02:25;;;;;;;5.37;3.50;;;16.40;99.90;;;;;;5097998;28;20282;-75
2023/06/14 05:04:53;;;;;;;7.23;3.40;;;16.40;99.90;;;;;;5081599;28;20616;-75
2023/06/14 05:07:23;;;;;;;9.30;3.60;;;16.50;99.90;;;;;;5097164;28;20209;-75
2023/06/14 05:09:50;;;;;;;5.80;3.50;;;16.50;99.90;;;;;;5102741;28;20258;-76
2023/06/14 05:12:18;;;;;;;5.83;3.50;;;16.50;99.90;;;;;;5082821;28;20286;-75
2023/06/14 05:14:45;;;;;;;5.60;3.23;;;16.60;99.90;;;;;;5097919;28;20200;-77
2023/06/14 05:17:12;;;;;;;5.57;3.13;;;16.60;99.90;;;;;;5082297;28;20212;-75
2023/06/14 05:19:39;;;;;;;7.80;3.60;;;16.70;99.90;;;;;;5095359;28;20227;-76
2023/06/14 05:22:06;;;;;;;4.60;3.23;;;16.80;99.90;;;;;;5099832;28;20198;-76
2023/06/14 05:24:34;;;;;;;5.93;3.13;;;16.90;99.90;;;;;;5096842;28;20765;-77
2023/06/14 05:27:01;;;;;;;7.68;3.10;;;17.40;99.90;;;;;;5096996;28;20211;-74
2023/06/14 05:29:28;;;;;;;3.92;3.22;;;18.30;99.90;;;;;;5091994;28;20231;-74
2023/06/14 05:31:56;;;;;;;8.30;3.10;;;19.50;99.90;;;;;;5091534;28;20204;-75
2023/06/14 05:34:24;;;;;;;5.90;3.10;;;20.80;99.90;;;;;;5091315;28;20200;-76
2023/06/14 05:36:51;;;;;;;4.00;3.10;;;21.80;98.20;;;;;;5091464;28;20643;-79
2023/06/14 05:39:18;;;;;;;6.43;3.30;;;22.80;95.40;;;;;;5094616;28;20192;-75
2023/06/14 05:41:45;;;;;;;6.85;3.33;;;23.80;93.70;;;;;;5097658;28;20624;-75
2023/06/14 05:44:12;;;;;;;5.05;2.70;;;24.80;91.80;;;;;;5097954;28;20622;-75
2023/06/14 05:46:40;;;;;;;4.95;2.67;;;25.80;90.70;;;;;;5094577;28;20217;-76
2023/06/14 05:49:07;;;;;;;3.40;2.40;;;26.50;87.50;;;;;;5091877;28;20232;-75
2023/06/14 05:51:34;;;;;;;5.38;2.80;;;27.20;84.50;;;;;;5099320;28;20199;-77
2023/06/14 05:54:02;;;;;;;5.90;2.97;;;;;;;;;;5095778;28;20218;-75
2023/06/14 05:56:29;;;;;;;4.55;2.70;;;28.30;78.60;;;;;;5095971;28;20199;-77
2023/06/14 05:58:56;;;;;;;6.15;2.70;;;28.60;77.20;;;;;;5099121;28;20593;-77
2023/06/14 06:01:23;;;;;;;4.28;2.83;;;29.20;75.30;;;;;;5090213;28;20195;-75
2023/06/14 06:03:50;;;;;;;5.88;2.83;;;29.40;73.90;;;;;;5077262;28;20290;-76
2023/06/14 06:06:17;;;;;;;4.30;2.55;;;29.70;72.90;;;;;;5085406;28;20216;-75
2023/06/14 06:08:44;;;;;;;3.55;2.67;;;29.90;71.80;;;;;;5091956;28;20211;-81
2023/06/14 06:11:12;;;;;;;3.10;2.72;;;30.10;71.40;;;;;;5097655;28;20208;-77
2023/06/14 06:13:39;;;;;;;4.15;2.35;;;30.40;70.00;;;;;;5097310;28;20211;-77
2023/06/14 06:16:08;;;;;;;4.28;2.40;;;30.70;69.40;;;;;;5079405;28;20231;-77
2023/06/14 06:18:36;;;;;;;4.53;2.35;;;31.00;68.30;;;;;;5082673;28;20686;-77
2023/06/14 06:21:04;;;;;;;5.68;2.17;;;31.20;67.10;;;;;;5099011;28;20226;-79
2023/06/14 06:23:32;;;;;;;3.33;2.45;;;31.10;66.10;;;;;;5101536;28;20286;-78
2023/06/14 06:25:58;;;;;;;3.20;2.35;;;30.90;65.10;;;;;;5095736;28;20260;-77
2023/06/14 06:28:25;;;;;;;4.00;2.58;;;30.70;63.20;;;;;;5080426;28;20203;-76
2023/06/14 06:30:53;;;;;;;4.10;2.60;;;30.70;62.50;;;;;;5098683;28;20242;-75
2023/06/14 06:33:21;;;;;;;2.97;2.30;;;30.70;62.10;;;;;;5094321;28;20231;-75
2023/06/14 06:35:48;;;;;;;2.90;2.50;;;30.70;62.20;;;;;;5093700;28;20302;-77
2023/06/14 06:38:15;;;;;;;5.38;2.55;;;30.70;61.80;;;;;;5099435;28;20202;-77
2023/06/14 06:40:42;;;;;;;3.15;2.10;;;30.80;61.50;;;;;;5094254;28;20215;-77
2023/06/14 06:43:09;;;;;;;2.60;2.10;;;30.60;60.70;;;;;;5094385;28;20212;-76
2023/06/14 06:45:36;;;;;;;6.82;2.50;;;30.00;61.20;;;;;;5089711;28;20207;-77
2023/06/14 06:48:03;;;;;;;3.50;2.15;;;29.80;62.30;;;;;;5089645;28;20253;-77
2023/06/14 06:50:30;;;;;;;5.70;2.28;;;29.90;62.00;;;;;;5090149;28;20281;-77
2023/06/14 06:52:57;;;;;;;2.28;2.00;;;30.20;62.20;;;;;;5090133;28;20196;-77
2023/06/14 06:55:24;;;;;;;2.92;1.92;;;30.40;60.50;;;;;;5093003;28;20235;-82
2023/06/14 06:57:52;;;;;;;3.00;2.00;;;30.60;60.10;;;;;;5098368;28;20211;-78
2023/06/14 07:00:21;;;;;;;2.88;1.95;;;30.60;59.60;;;;;;5074594;28;20271;-78
2023/06/14 07:02:54;;;;;;;2.88;1.70;;;30.50;59.30;;;;;;5096210;28;20226;-81
2023/06/14 07:05:22;;;;;;;5.60;2.38;;;30.20;59.10;;;;;;5094698;28;20643;-78
2023/06/14 07:07:49;;;;;;;3.90;1.70;;;30.10;58.90;;;;;;5096729;28;20647;-79
2023/06/14 07:10:16;;;;;;;2.35;1.80;;;;;;;;;;5097482;27;20207;-78
2023/06/14 07:12:44;;;;;;;3.47;1.70;;;29.20;59.30;;;;;;5096947;28;20423;-78
2023/06/14 07:15:12;;;;;;;2.67;2.10;;;;;;;;;;5098901;28;20298;-78
2023/06/14 07:17:39;;;;;;;2.08;1.88;;;28.70;60.10;;;;;;5095217;28;20202;-80
2023/06/14 07:20:13;;;;;;;3.90;1.60;;;28.90;60.30;;;;;;5073270;28;20268;-81
2023/06/14 07:22:41;;;;;;;3.30;1.75;;;28.90;60.30;;;;;;5075464;28;20726;-77
2023/06/14 07:25:15;;;;;;;3.67;1.58;;;28.80;60.20;;;;;;5078376;28;20571;-78
2023/06/14 07:27:45;;;;;;;2.53;1.80;;;28.80;60.30;;;;;;5079496;28;20654;-77
2023/06/14 07:30:13;;;;;;;4.75;2.17;;;28.60;60.50;;;;;;5079700;28;20211;-77
2023/06/14 07:32:39;;;;;;;3.00;1.90;;;28.40;61.30;;;;;;5076270;28;20197;-78
2023/06/14 07:35:07;;;;;;;8.07;1.90;;;28.20;61.60;;;;;;5070727;28;20798;-76
2023/06/14 07:37:34;;;;;;;3.78;1.70;;;28.40;61.70;;;;;;5078475;28;20220;-76
2023/06/14 07:40:06;;;;;;;5.75;2.10;;;28.70;61.30;;;;;;5074357;28;20218;-75
2023/06/14 07:42:36;;;;;;;1.92;1.73;;;29.00;60.40;;;;;;5070212;28;20679;-78
2023/06/14 07:45:04;;;;;;;2.88;1.60;;;29.30;60.10;;;;;;5071652;28;20252;-78
2023/06/14 07:47:31;;;;;;;2.70;1.70;;;29.50;60.10;;;;;;5070721;28;20560;-78
2023/06/14 07:49:59;;;;;;;2.55;1.80;;;29.80;59.90;;;;;;5075665;28;20243;-77
2023/06/14 07:52:26;;;;;;;4.50;1.63;;;29.20;59.80;;;;;;5075629;28;20212;-77
2023/06/14 07:54:53;;;;;;;5.20;1.90;;;28.70;59.50;;;;;;5072800;28;20217;-78
2023/06/14 07:57:20;;;;;;;6.10;1.60;;;28.30;59.90;;;;;;5071169;28;20208;-78
2023/06/14 07:59:47;;;;;;;2.47;1.70;;;28.10;60.20;;;;;;5075457;28;20546;-77
2023/06/14 08:02:14;;;;;;;5.47;1.90;;;28.20;60.40;;;;;;5075766;28;20665;-77
2023/06/14 08:04:42;;;;;;;4.25;1.92;;;28.50;59.60;;;;;;5076828;28;20242;-77
2023/06/14 08:07:08;;;;;;;3.13;1.98;;;28.70;59.20;;;;;;5080802;28;20315;-79
2023/06/14 08:09:37;;;;;;;3.03;1.80;;;28.80;58.70;;;;;;5071399;28;20290;-77
2023/06/14 08:12:07;;;;;;;3.75;1.75;;;28.90;58.90;;;;;;5075282;28;20211;-78
2023/06/14 08:14:34;;;;;;;2.67;1.83;;;28.90;58.70;;;;;;5072816;28;20212;-77
2023/06/14 08:17:01;;;;;;;4.00;2.13;;;29.10;58.80;;;;;;5069370;28;20218;-76
2023/06/14 08:19:28;;;;;;;2.97;1.55;;;29.20;58.70;;;;;;5080827;28;20231;-77
2023/06/14 08:21:56;;;;;;;3.03;1.95;;;29.30;58.80;;;;;;5085630;28;20271;-77
2023/06/14 08:24:24;;;;;;;3.80;1.80;;;29.30;58.80;;;;;;5089124;28;20224;-77
2023/06/14 08:26:51;;;;;;;4.00;1.85;;;29.30;58.60;;;;;;5093841;28;20660;-77
2023/06/14 08:29:18;;;;;;;2.72;1.70;;;29.30;58.90;;;;;;5079801;28;20198;-78
2023/06/14 08:31:45;;;;;;;2.72;1.73;;;29.20;59.60;;;;;;5093696;28;20232;-76
2023/06/14 08:34:12;;;;;;;3.28;1.52;;;29.20;60.00;;;;;;5079362;28;20681;-76
2023/06/14 08:36:39;;;;;;;3.10;1.70;;;29.10;60.20;;;;;;5096466;28;20209;-76
2023/06/14 08:39:06;;;;;;;2.45;1.55;;;29.10;59.40;;;;;;5094714;28;20230;-77
2023/06/14 08:41:33;;;;;;;1.88;1.35;;;29.20;59.90;;;;;;5101283;28;20199;-76
2023/06/14 08:44:00;;;;;;;2.28;1.70;;;29.00;59.30;;;;;;5096844;28;20651;-78
2023/06/14 08:46:32;;;;;;;3.17;1.67;;;28.60;59.20;;;;;;5101844;28;20267;-76
2023/06/14 08:49:01;;;;;;;6.15;1.58;;;28.20;60.60;;;;;;5097314;28;20208;-76
2023/06/14 08:51:33;;;;;;;3.33;1.77;;;28.50;60.20;;;;;;5099716;28;20667;-78
2023/06/14 08:54:01;;;;;;;5.70;1.90;;;28.50;59.40;;;;;;5098844;28;20220;-76
2023/06/14 08:56:29;;;;;;;3.83;1.60;;;28.70;59.50;;;;;;5103706;28;20220;-75
2023/06/14 08:59:03;;;;;;;2.60;1.60;;;28.90;60.70;;;;;;5096687;28;20213;-77
2023/06/14 09:01:34;;;;;;;2.88;1.80;;;28.90;61.00;;;;;;5100431;28;20207;-77
2023/06/14 09:04:02;;;;;;;2.00;1.60;;;28.50;59.80;;;;;;5096954;28;20204;-76
2023/06/14 09:06:29;;;;;;;2.05;1.30;;;28.10;60.60;;;;;;5100422;28;20299;-75
2023/06/14 09:08:57;;;;;;;2.35;1.70;;;28.00;61.40;;;;;;5096462;28;20541;-77
2023/06/14 09:11:25;;;;;;;3.40;1.80;;;27.90;61.70;;;;;;5096359;28;20281;-76
2023/06/14 09:13:52;;;;;;;2.78;1.55;;;27.80;62.00;;;;;;5096343;28;20208;-75
2023/06/14 09:16:19;;;;;;;3.47;1.83;;;27.90;62.20;;;;;;5102080;28;20571;-76
2023/06/14 09:18:47;;;;;;;2.80;2.00;;;27.90;62.80;;;;;;5082036;28;20640;-76
2023/06/14 09:21:16;;;;;;;3.20;1.88;;;27.80;62.70;;;;;;5091798;28;20600;-81
2023/06/14 09:23:45;;;;;;;3.67;1.80;;;27.60;62.50;;;;;;5092872;28;20629;-75
2023/06/14 09:26:17;;;;;;;3.67;1.67;;;27.70;62.70;;;;;;5091636;28;20450;-78
2023/06/14 09:28:49;;;;;;;1.83;1.45;;;27.90;61.70;;;;;;5091835;28;20204;-75
2023/06/14 09:31:18;;;;;;;7.10;1.92;;;27.80;59.70;;;;;;5095661;28;20232;-75
2023/06/14 09:33:50;;;;;;;5.40;1.92;;;27.60;59.70;;;;;;5099876;28;20639;-76
2023/06/14 09:36:25;;;;;;;2.60;1.90;;;27.60;59.40;;;;;;5081365;28;20200;-77
2023/06/14 09:39:08;;;;;;;2.58;1.50;;;27.50;60.00;;;;;;5099961;28;20254;-76
2023/06/14 09:41:35;;;;;;;2.45;1.65;;;27.60;60.20;;;;;;5099989;28;20215;-77
2023/06/14 09:44:05;;;;;;;2.55;1.60;;;27.60;59.60;;;;;;5081468;28;20211;-76
2023/06/14 09:46:38;;;;;;;3.55;1.77;;;27.60;60.60;;;;;;5098354;28;20235;-75
2023/06/14 09:49:06;;;;;;;2.97;1.38;;;27.80;61.20;;;;;;5099253;28;20600;-78
2023/06/14 09:51:35;;;;;;;1.88;1.58;;;27.90;60.30;;;;;;5095506;28;20231;-78
2023/06/14 09:54:06;;;;;;;2.08;1.50;;;27.80;59.20;;;;;;5099395;28;20714;-76
2023/06/14 09:56:44;;;;;;;1.35;1.20;;;27.60;59.10;;;;;;5097816;28;20199;-77
2023/06/14 09:59:12;;;;;;;1.52;1.27;;;27.40;59.30;;;;;;5095310;28;20211;-76
2023/06/14 10:01:43;;;;;;;1.60;1.50;;;27.20;59.70;;;;;;5099114;28;20963;-77
2023/06/14 10:04:12;;;;;;;4.13;1.60;;;27.00;59.80;;;;;;5098130;28;20245;-76
2023/06/14 10:06:45;;;;;;;2.00;1.60;;;26.90;60.10;;;;;;5100650;28;20283;-75
2023/06/14 10:09:14;;;;;;;2.80;1.80;;;27.00;61.20;;;;;;5097119;28;20634;-77
2023/06/14 10:11:43;;;;;;;3.33;1.80;;;27.30;61.50;;;;;;5098221;28;20234;-78
2023/06/14 10:14:13;;;;;;;2.65;1.50;;;27.40;61.30;;;;;;5095579;28;20196;-75
2023/06/14 10:16:56;;;;;;;2.53;1.50;;;27.60;60.60;;;;;;5094168;28;20204;-77
2023/06/14 10:19:41;;;;;;;3.55;1.60;;;27.80;60.90;;;;;;5101596;28;20578;-77
2023/06/14 10:22:19;;;;;;;2.58;1.60;;;28.10;60.80;;;;;;5095072;28;20207;-76
2023/06/14 10:24:48;;;;;;;1.65;1.38;;;28.10;60.10;;;;;;5094953;28;20228;-76
2023/06/14 10:27:18;;;;;;;3.67;1.52;;;28.10;60.30;;;;;;5092651;28;20886;-80
2023/06/14 10:29:54;;;;;;;3.63;1.60;;;28.50;60.00;;;;;;5095419;28;20226;-81
2023/06/14 10:32:23;;;;;;;2.17;1.50;;;28.70;59.00;;;;;;5098623;28;20249;-76
2023/06/14 10:35:03;;;;;;;2.10;1.60;;;28.80;59.50;;;;;;5091732;28;21573;-76
2023/06/14 10:37:30;;;;;;;2.22;1.48;;;28.60;59.80;;;;;;5098066;28;20283;-76
2023/06/14 10:39:57;;;;;;;3.30;1.45;;;28.60;59.90;;;;;;5102415;28;20279;-78
2023/06/14 10:42:31;;;;;;;2.55;1.70;;;28.50;59.90;;;;;;5104765;27;20214;-76
2023/06/14 10:45:01;;;;;;;2.38;1.52;;;28.40;58.90;;;;;;5098136;28;20199;-76
2023/06/14 10:47:34;;;;;;;1.83;1.58;;;28.30;59.40;;;;;;5096349;28;20204;-78
2023/06/14 10:50:05;;;;;;;2.55;1.20;;;28.20;59.80;;;;;;5102220;27;20237;-75
2023/06/14 10:52:39;;;;;;;4.50;2.30;;;28.30;60.20;;;;;;5098076;28;20286;-75
2023/06/14 10:55:14;;;;;;;4.13;1.80;;;28.00;59.80;;;;;;5101739;28;20698;-75
2023/06/14 10:57:49;;;;;;;2.10;1.58;;;27.90;59.10;;;;;;5099790;28;20226;-76
2023/06/14 11:00:23;;;;;;;4.63;1.77;;;27.80;59.50;;;;;;5082887;28;20260;-75
2023/06/14 11:03:13;;;;;;;3.40;1.50;;;27.70;60.10;;;;;;5102885;28;20227;-75
2023/06/14 11:05:52;;;;;;;3.85;1.77;;;27.70;60.20;;;;;;5098850;28;20282;-75
2023/06/14 11:08:38;;;;;;;5.05;1.85;;;27.60;60.30;;;;;;5089324;28;20204;-74
2023/06/14 11:11:09;;;;;;;35.83;4.18;;;27.40;60.40;;;;;;5082522;28;20228;-74
2023/06/14 11:13:45;;;;;;;13.13;2.47;;;27.20;60.50;;;;;;5073645;28;20207;-76
2023/06/14 11:16:18;;;;;;;3.88;1.60;;;27.20;61.30;;;;;;5093386;28;20478;-76
2023/06/14 11:18:46;;;;;;;3.10;1.70;;;27.00;60.00;;;;;;5076241;28;20231;-76
2023/06/14 11:21:19;;;;;;;2.10;1.90;;;26.80;60.50;;;;;;5079261;28;20210;-76
2023/06/14 11:23:56;;;;;;;2.85;1.95;;;26.70;61.20;;;;;;5078469;28;20222;-76
2023/06/14 11:26:28;;;;;;;1.80;1.65;;;26.80;61.10;;;;;;5100385;28;20220;-76
2023/06/14 11:28:57;;;;;;;4.40;1.50;;;26.80;61.80;;;;;;5087787;27;20291;-74
2023/06/14 11:31:25;;;;;;;4.07;1.60;;;26.80;60.10;;;;;;5070639;28;20215;-75
2023/06/14 11:33:59;;;;;;;2.25;1.60;;;26.70;60.00;;;;;;5080397;28;20215;-76
2023/06/14 11:36:31;;;;;;;3.50;1.73;;;26.80;59.70;;;;;;5078451;28;20206;-75
2023/06/14 11:39:08;;;;;;;1.70;1.50;;;27.00;60.20;;;;;;5074464;28;20222;-78
2023/06/14 11:41:45;;;;;;;1.90;1.80;;;27.30;59.90;;;;;;5099590;28;20207;-73
2023/06/14 11:44:12;;;;;;;4.20;1.70;;;27.30;59.50;;;;;;5084003;28;20197;-76
2023/06/14 11:46:39;;;;;;;3.47;1.33;;;27.10;60.30;;;;;;5096926;28;20204;-75
2023/06/14 11:49:07;;;;;;;5.65;1.40;;;27.20;60.70;;;;;;5085208;28;20211;-75
2023/06/14 11:51:35;;;;;;;3.50;2.03;;;27.20;59.90;;;;;;5097158;28;20306;-78
2023/06/14 11:54:03;;;;;;;2.00;1.50;;;27.30;60.20;;;;;;5092528;28;20212;-77
2023/06/14 11:56:31;;;;;;;3.83;1.73;;;27.20;59.80;;;;;;5092922;28;20239;-75
2023/06/14 11:58:59;;;;;;;1.67;1.40;;;27.00;60.00;;;;;;5082486;28;20242;-75
2023/06/14 12:01:26;;;;;;;3.13;1.48;;;26.80;60.10;;;;;;5095894;28;20208;-75
2023/06/14 12:03:55;;;;;;;2.20;1.85;;;26.70;60.00;;;;;;5099188;28;20587;-75
2023/06/14 12:06:32;;;;;;;1.80;1.30;;;26.80;60.80;;;;;;5092836;28;20278;-75
2023/06/14 12:09:03;;;;;;;2.70;1.60;;;27.00;62.10;;;;;;5095917;28;20305;-76
2023/06/14 12:11:35;;;;;;;2.05;1.52;;;26.90;61.30;;;;;;5095853;28;20224;-76
2023/06/14 12:14:05;;;;;;;2.25;1.50;;;27.10;61.50;;;;;;5076816;28;20200;-76
2023/06/14 12:16:35;;;;;;;2.72;1.67;;;27.20;60.80;;;;;;5081610;28;20188;-76
2023/06/14 12:19:14;;;;;;;4.13;1.73;;;27.30;61.00;;;;;;5096772;28;20234;-77
2023/06/14 12:21:41;;;;;;;2.05;1.70;;;27.30;60.00;;;;;;5104493;28;20506;-77
2023/06/14 12:24:11;;;;;;;9.32;1.67;;;27.40;59.40;;;;;;5102668;28;20267;-77
2023/06/14 12:26:43;;;;;;;3.55;1.60;;;27.30;59.60;;;;;;5084104;28;20203;-75
2023/06/14 12:29:11;;;;;;;1.90;1.40;;;27.40;59.90;;;;;;5102269;28;20214;-75
2023/06/14 12:31:39;;;;;;;4.32;1.63;;;27.40;60.80;;;;;;5097507;28;20281;-76
2023/06/14 12:34:05;;;;;;;2.78;1.40;;;27.30;60.20;;;;;;5098308;28;20195;-76
2023/06/14 12:36:33;;;;;;;3.55;1.55;;;27.40;60.20;;;;;;5108823;27;20190;-76
2023/06/14 12:39:00;;;;;;;3.15;1.48;;;27.40;61.30;;;;;;5081199;28;20250;-76
2023/06/14 12:41:27;;;;;;;5.10;1.60;;;27.70;61.30;;;;;;5092982;28;20208;-76
2023/06/14 12:43:55;;;;;;;3.85;2.08;;;27.90;60.10;;;;;;5094311;28;20265;-75
2023/06/14 12:46:22;;;;;;;2.08;1.40;;;27.90;59.70;;;;;;5093581;28;20200;-75
2023/06/14 12:48:49;;;;;;;1.95;1.50;;;27.90;59.80;;;;;;5088487;28;20206;-76
2023/06/14 12:51:16;;;;;;;4.07;1.70;;;27.90;60.90;;;;;;5085709;28;20225;-74
2023/06/14 12:53:43;;;;;;;1.65;1.40;;;28.10;61.70;;;;;;5097034;28;20306;-75
2023/06/14 12:56:10;;;;;;;2.65;1.70;;;28.20;61.20;;;;;;5079545;28;20326;-77